createdAt,value
2022-11-23T00:01:36.557Z,2.03
2022-11-23T00:04:07.910Z,2.10
2022-11-23T00:06:35.182Z,1.95
2022-11-23T00:09:02.126Z,1.80
2022-11-23T00:11:29.256Z,2.00
2022-11-23T00:13:56.808Z,2.25
2022-11-23T00:19:09.588Z,1.90
2022-11-23T00:21:36.236Z,1.77
2022-11-23T00:24:03.094Z,2.00
2022-11-23T00:26:29.787Z,2.00
2022-11-23T00:28:56.464Z,1.90
2022-11-23T00:31:23.152Z,2.17
2022-11-23T00:33:54.496Z,1.95
2022-11-23T00:36:22.685Z,1.67
2022-11-23T00:38:50.349Z,1.88
2022-11-23T00:41:20.062Z,2.33
2022-11-23T00:43:46.948Z,1.55
2022-11-23T00:46:24.974Z,1.63
2022-11-23T00:48:53.598Z,1.80
2022-11-23T00:51:23.336Z,1.95
2022-11-23T00:53:51.466Z,1.88
2022-11-23T00:56:18.543Z,1.75
2022-11-23T00:58:49.639Z,2.20
2022-11-23T01:01:18.040Z,2.00
2022-11-23T01:03:47.285Z,1.70
2022-11-23T01:06:17.773Z,1.70
2022-11-23T01:08:52.644Z,1.70
2022-11-23T01:11:19.712Z,1.50
2022-11-23T01:13:48.593Z,1.90
2022-11-23T01:16:24.212Z,1.92
2022-11-23T01:18:56.446Z,2.33
2022-11-23T01:21:23.921Z,1.90
2022-11-23T01:23:50.828Z,2.10
2022-11-23T01:26:17.660Z,1.63
2022-11-23T01:28:44.773Z,1.80
2022-11-23T01:31:17.571Z,2.00
2022-11-23T01:33:44.214Z,2.20
2022-11-23T01:36:18.142Z,2.00
2022-11-23T01:38:46.005Z,1.90
2022-11-23T01:41:16.525Z,2.20
2022-11-23T01:43:43.610Z,2.17
2022-11-23T01:46:10.747Z,2.03
2022-11-23T01:48:37.302Z,2.25
2022-11-23T01:51:09.648Z,2.63
2022-11-23T01:53:37.484Z,2.20
2022-11-23T01:56:07.420Z,2.10
2022-11-23T01:58:39.094Z,2.67
2022-11-23T02:01:07.393Z,2.42
2022-11-23T02:03:37.610Z,2.22
2022-11-23T02:06:10.059Z,2.38
2022-11-23T02:08:37.561Z,2.78
2022-11-23T02:11:04.338Z,2.40
2022-11-23T02:13:31.509Z,2.40
2022-11-23T02:15:59.634Z,2.58
2022-11-23T02:18:31.159Z,2.17
2022-11-23T02:21:03.059Z,2.42
2022-11-23T02:23:41.873Z,2.00
2022-11-23T02:26:14.471Z,1.70
2022-11-23T02:28:47.355Z,2.30
2022-11-23T02:31:13.972Z,1.70
2022-11-23T02:33:41.906Z,2.47
2022-11-23T02:36:27.195Z,1.70
2022-11-23T02:38:55.499Z,2.33
2022-11-23T02:41:22.274Z,2.20
2022-11-23T02:43:58.616Z,2.30
2022-11-23T02:46:32.551Z,2.28
2022-11-23T02:48:59.146Z,2.50
2022-11-23T02:51:25.757Z,2.40
2022-11-23T02:53:56.662Z,2.33
2022-11-23T02:56:23.306Z,2.10
2022-11-23T02:58:50.398Z,2.30
2022-11-23T03:01:17.136Z,2.40
2022-11-23T03:03:45.188Z,2.30
2022-11-23T03:06:13.189Z,2.60
2022-11-23T03:08:40.420Z,2.20
2022-11-23T03:11:07.926Z,2.00
2022-11-23T03:13:34.985Z,2.20
2022-11-23T03:16:01.615Z,2.35
2022-11-23T03:18:34.426Z,2.28
2022-11-23T03:21:05.639Z,2.15
2022-11-23T03:23:36.274Z,2.20
2022-11-23T03:26:07.315Z,2.13
2022-11-23T03:28:44.592Z,2.00
2022-11-23T03:31:11.280Z,2.10
2022-11-23T03:33:38.732Z,1.70
2022-11-23T03:36:05.743Z,1.50
2022-11-23T03:38:36.033Z,1.90
2022-11-23T03:41:03.019Z,1.70
2022-11-23T03:43:29.648Z,1.70
2022-11-23T03:45:56.241Z,2.08
2022-11-23T03:48:23.136Z,1.73
2022-11-23T03:50:50.013Z,1.92
2022-11-23T03:53:16.749Z,1.88
2022-11-23T03:55:46.916Z,2.03
2022-11-23T03:58:13.578Z,1.75
2022-11-23T04:00:40.261Z,1.65
2022-11-23T04:03:07.105Z,1.83
2022-11-23T04:05:33.755Z,1.70
2022-11-23T04:08:06.090Z,1.55
2022-11-23T04:10:39.632Z,1.80
2022-11-23T04:13:08.802Z,1.80
2022-11-23T04:15:38.328Z,1.70
2022-11-23T04:18:08.209Z,1.98
2022-11-23T04:20:44.775Z,1.70
2022-11-23T04:23:13.550Z,1.70
2022-11-23T04:25:41.505Z,1.70
2022-11-23T04:28:10.531Z,1.90
2022-11-23T04:30:37.480Z,1.80
2022-11-23T04:33:05.610Z,1.83
2022-11-23T04:35:34.308Z,1.60
2022-11-23T04:38:01.880Z,1.73
2022-11-23T04:40:29.900Z,1.67
2022-11-23T04:43:01.900Z,1.88
2022-11-23T04:45:29.672Z,1.38
2022-11-23T04:47:57.822Z,1.58
2022-11-23T04:50:25.587Z,1.63
2022-11-23T04:53:02.566Z,1.38
2022-11-23T04:55:29.233Z,1.40
2022-11-23T04:58:10.626Z,1.60
2022-11-23T05:00:39.462Z,1.50
2022-11-23T05:03:12.254Z,1.40
2022-11-23T05:05:48.712Z,1.45
2022-11-23T05:08:16.653Z,1.30
2022-11-23T05:10:44.176Z,1.27
2022-11-23T05:13:22.758Z,1.60
2022-11-23T05:15:49.817Z,1.48
2022-11-23T05:18:17.089Z,1.60
2022-11-23T05:20:52.058Z,1.70
2022-11-23T05:23:35.439Z,1.90
2022-11-23T05:26:02.094Z,1.60
2022-11-23T05:28:44.306Z,1.70
2022-11-23T05:33:37.954Z,1.95
2022-11-23T05:36:11.610Z,1.52
2022-11-23T05:38:38.272Z,2.20
2022-11-23T05:41:05.037Z,1.80
2022-11-23T05:43:32.953Z,1.95
2022-11-23T05:46:00.870Z,1.52
2022-11-23T05:48:27.788Z,2.05
2022-11-23T05:50:54.832Z,2.20
2022-11-23T05:53:21.627Z,2.20
2022-11-23T05:55:48.348Z,2.00
2022-11-23T05:58:15.078Z,2.63
2022-11-23T06:00:42.113Z,2.30
2022-11-23T06:03:08.776Z,2.65
2022-11-23T06:05:35.434Z,2.42
2022-11-23T06:08:06.018Z,3.80
2022-11-23T06:10:32.786Z,3.58
2022-11-23T06:13:04.684Z,2.85
2022-11-23T06:15:31.581Z,3.10
2022-11-23T06:18:02.300Z,3.30
2022-11-23T06:20:31.884Z,2.72
2022-11-23T06:22:58.590Z,3.13
2022-11-23T06:26:12.432Z,3.10
2022-11-23T06:28:58.193Z,3.40
2022-11-23T06:31:32.664Z,3.72
2022-11-23T06:34:04.369Z,2.80
2022-11-23T06:36:31.007Z,2.90
2022-11-23T06:38:57.678Z,3.72
2022-11-23T06:41:29.420Z,3.40
2022-11-23T06:43:58.681Z,4.05
2022-11-23T06:46:25.269Z,3.60
2022-11-23T06:48:51.828Z,3.60
2022-11-23T06:51:18.496Z,3.90
2022-11-23T06:53:45.188Z,3.88
2022-11-23T06:56:11.830Z,3.40
2022-11-23T06:58:53.053Z,3.17
2022-11-23T07:01:31.048Z,3.38
2022-11-23T07:03:57.871Z,3.30
2022-11-23T07:06:24.582Z,3.20
2022-11-23T07:08:51.168Z,3.28
2022-11-23T07:11:17.818Z,3.17
2022-11-23T07:13:44.841Z,3.03
2022-11-23T07:16:11.528Z,3.33
2022-11-23T07:18:40.716Z,3.22
2022-11-23T07:23:48.110Z,3.08
2022-11-23T07:26:14.761Z,3.67
2022-11-23T07:28:41.404Z,3.55
2022-11-23T07:31:08.260Z,3.53
2022-11-23T07:33:34.859Z,3.50
2022-11-23T07:36:02.929Z,3.40
2022-11-23T07:38:30.166Z,3.20
2022-11-23T07:40:59.060Z,3.03
2022-11-23T07:43:25.632Z,3.38
2022-11-23T07:45:52.235Z,3.60
2022-11-23T07:48:18.833Z,3.38
2022-11-23T07:50:45.660Z,3.80
2022-11-23T07:53:12.268Z,3.50
2022-11-23T07:55:38.956Z,2.97
2022-11-23T07:58:06.741Z,3.33
2022-11-23T08:00:33.302Z,3.00
2022-11-23T08:05:46.952Z,2.65
2022-11-23T08:08:13.551Z,2.25
2022-11-23T08:10:44.416Z,1.95
2022-11-23T08:13:14.132Z,2.10
2022-11-23T08:15:40.693Z,2.00
2022-11-23T08:18:08.081Z,1.85
2022-11-23T08:20:34.713Z,2.20
2022-11-23T08:23:01.454Z,1.55
2022-11-23T08:25:29.810Z,2.33
2022-11-23T08:28:02.352Z,1.73
2022-11-23T08:30:33.502Z,2.03
2022-11-23T08:33:03.472Z,1.70
2022-11-23T08:35:30.187Z,1.30
2022-11-23T08:38:01.871Z,1.50
2022-11-23T08:40:33.502Z,1.50
2022-11-23T08:43:00.242Z,1.90
2022-11-23T08:45:27.217Z,1.77
2022-11-23T08:47:54.351Z,1.55
2022-11-23T08:50:21.654Z,1.63
2022-11-23T08:52:48.417Z,1.60
2022-11-23T08:55:15.074Z,1.88
2022-11-23T08:57:41.637Z,1.67
2022-11-23T09:00:08.996Z,1.80
2022-11-23T09:02:35.635Z,1.77
2022-11-23T09:05:02.344Z,1.35
2022-11-23T09:07:29.009Z,1.70
2022-11-23T09:09:55.727Z,1.40
2022-11-23T09:12:22.373Z,1.42
2022-11-23T09:14:48.962Z,1.27
2022-11-23T09:17:15.602Z,1.48
2022-11-23T09:19:42.310Z,1.70
2022-11-23T09:22:08.938Z,1.42
2022-11-23T09:24:35.985Z,1.55
2022-11-23T09:27:02.911Z,1.50
2022-11-23T09:29:29.591Z,1.67
2022-11-23T09:31:56.194Z,1.35
2022-11-23T09:34:23.165Z,1.48
2022-11-23T09:36:49.785Z,2.00
2022-11-23T09:39:16.404Z,2.15
2022-11-23T09:42:04.157Z,1.15
2022-11-23T09:44:52.526Z,1.08
2022-11-23T09:47:43.537Z,3.65
2022-11-23T09:50:10.178Z,1.48
2022-11-23T09:52:43.120Z,2.55
2022-11-23T09:55:16.808Z,1.20
2022-11-23T09:57:46.895Z,1.10
2022-11-23T10:00:20.739Z,1.50
2022-11-23T10:02:48.114Z,1.20
2022-11-23T10:05:19.122Z,1.60
2022-11-23T10:08:03.851Z,1.60
2022-11-23T10:10:30.385Z,1.30
2022-11-23T10:13:21.767Z,1.88
2022-11-23T10:15:57.042Z,2.08
2022-11-23T10:18:32.452Z,2.00
2022-11-23T10:21:13.982Z,1.70
2022-11-23T10:23:49.777Z,1.70
2022-11-23T10:26:18.823Z,1.67
2022-11-23T10:28:47.181Z,2.00
2022-11-23T10:31:22.882Z,1.65
2022-11-23T10:34:16.096Z,1.48
2022-11-23T10:36:42.679Z,1.60
2022-11-23T10:39:22.846Z,1.90
2022-11-23T10:41:51.473Z,1.80
2022-11-23T10:44:18.065Z,1.60
2022-11-23T10:46:45.125Z,2.10
2022-11-23T10:49:17.033Z,2.15
2022-11-23T10:52:06.622Z,1.83
2022-11-23T10:54:37.060Z,1.55
2022-11-23T10:57:21.230Z,2.30
2022-11-23T11:00:03.286Z,1.75
2022-11-23T11:02:39.158Z,1.88
2022-11-23T11:05:46.432Z,1.90
2022-11-23T11:08:17.086Z,1.67
2022-11-23T11:10:50.238Z,1.83
2022-11-23T11:13:32.158Z,1.90
2022-11-23T11:16:04.529Z,1.90
2022-11-23T11:18:37.610Z,2.10
2022-11-23T11:21:19.344Z,2.15
2022-11-23T11:23:53.532Z,2.17
2022-11-23T11:26:23.918Z,2.35
2022-11-23T11:28:55.816Z,3.35
2022-11-23T11:31:34.249Z,3.70
2022-11-23T11:34:11.649Z,2.70
2022-11-23T11:36:47.864Z,2.25
2022-11-23T11:39:27.789Z,2.22
2022-11-23T11:41:56.180Z,1.90
2022-11-23T11:44:25.425Z,2.15
2022-11-23T11:47:00.749Z,2.70
2022-11-23T11:49:33.183Z,2.47
2022-11-23T11:52:09.031Z,2.20
2022-11-23T11:54:39.280Z,2.15
2022-11-23T11:57:28.257Z,2.80
2022-11-23T11:59:58.108Z,2.20
2022-11-23T12:02:27.088Z,1.98
2022-11-23T12:05:21.209Z,2.17
2022-11-23T12:08:03.109Z,2.08
2022-11-23T12:10:44.058Z,2.13
2022-11-23T12:13:18.863Z,2.03
2022-11-23T12:15:52.678Z,2.30
2022-11-23T12:18:34.390Z,2.50
2022-11-23T12:21:05.342Z,2.33
2022-11-23T12:24:04.041Z,2.40
2022-11-23T12:26:56.726Z,1.60
2022-11-23T12:30:00.601Z,3.25
2022-11-23T12:32:42.474Z,2.47
2022-11-23T12:35:45.940Z,2.80
2022-11-23T12:38:32.187Z,2.90
2022-11-23T12:41:37.154Z,2.40
2022-11-23T12:44:48.976Z,2.10
2022-11-23T12:47:44.516Z,2.30
2022-11-23T12:50:32.177Z,2.53
2022-11-23T12:53:13.921Z,2.10
2022-11-23T12:56:11.174Z,3.00
2022-11-23T12:58:39.751Z,15.55
2022-11-23T13:01:09.953Z,2.45
2022-11-23T13:04:08.921Z,2.63
2022-11-23T13:07:20.688Z,2.55
2022-11-23T13:10:02.814Z,2.75
2022-11-23T13:12:42.625Z,2.35
2022-11-23T13:15:18.285Z,2.03
2022-11-23T13:17:50.618Z,2.60
2022-11-23T13:21:01.348Z,2.58
2022-11-23T13:23:28.130Z,2.35
2022-11-23T13:26:22.425Z,2.55
2022-11-23T13:28:51.586Z,2.90
2022-11-23T13:31:25.097Z,2.80
2022-11-23T13:33:55.473Z,2.38
2022-11-23T13:36:56.452Z,2.65
2022-11-23T13:40:00.953Z,2.67
2022-11-23T13:42:31.273Z,3.13
2022-11-23T13:45:23.700Z,2.83
2022-11-23T13:48:07.316Z,2.47
2022-11-23T13:50:35.227Z,2.63
2022-11-23T13:53:03.485Z,3.30
2022-11-23T13:55:38.633Z,2.63
2022-11-23T13:58:23.690Z,2.97
2022-11-23T14:00:58.634Z,2.85
2022-11-23T14:03:49.687Z,4.22
2022-11-23T14:06:29.314Z,3.67
2022-11-23T14:09:37.861Z,2.90
2022-11-23T14:12:07.057Z,3.33
2022-11-23T14:14:45.117Z,3.30
2022-11-23T14:17:30.394Z,4.65
2022-11-23T14:20:36.063Z,3.40
2022-11-23T14:23:18.234Z,3.00
2022-11-23T14:28:42.698Z,2.78
2022-11-23T14:31:17.396Z,3.67
2022-11-23T14:34:00.668Z,3.30
2022-11-23T14:36:53.945Z,2.83
2022-11-23T14:39:39.021Z,3.30
2022-11-23T14:42:13.230Z,2.78
2022-11-23T14:44:43.080Z,3.33
2022-11-23T14:47:11.681Z,3.35
2022-11-23T14:49:49.858Z,3.55
2022-11-23T14:52:26.982Z,3.30
2022-11-23T14:54:57.351Z,3.10
2022-11-23T14:57:29.902Z,3.60
2022-11-23T15:00:07.044Z,3.67
2022-11-23T15:02:41.333Z,3.60
2022-11-23T15:05:20.916Z,4.00
2022-11-23T15:07:50.514Z,3.60
2022-11-23T15:10:38.114Z,3.72
2022-11-23T15:13:22.594Z,3.58
2022-11-23T15:15:52.492Z,3.53
2022-11-23T15:18:31.226Z,4.43
2022-11-23T15:21:01.995Z,3.80
2022-11-23T15:23:35.844Z,4.10
2022-11-23T15:26:35.032Z,3.78
2022-11-23T15:29:04.364Z,4.35
2022-11-23T15:31:36.403Z,4.90
2022-11-23T15:36:41.514Z,4.50
2022-11-23T15:39:16.933Z,4.22
2022-11-23T15:41:44.446Z,4.88
2022-11-23T15:44:24.956Z,4.70
2022-11-23T15:46:58.049Z,4.60
2022-11-23T15:49:24.930Z,4.72
2022-11-23T15:51:54.653Z,5.18
2022-11-23T15:54:25.709Z,5.13
2022-11-23T15:56:58.706Z,5.65
2022-11-23T15:59:40.981Z,4.82
2022-11-23T16:04:42.459Z,6.07
2022-11-23T16:07:25.092Z,7.60
2022-11-23T16:10:06.175Z,7.30
2022-11-23T16:12:35.688Z,8.73
2022-11-23T16:15:37.932Z,7.65
2022-11-23T16:18:15.821Z,7.40
2022-11-23T16:20:48.791Z,8.98
2022-11-23T16:23:22.556Z,8.25
2022-11-23T16:25:57.122Z,8.98
2022-11-23T16:28:32.358Z,7.65
2022-11-23T16:30:59.383Z,7.82
2022-11-23T16:33:26.506Z,7.28
2022-11-23T16:35:53.541Z,7.88
2022-11-23T16:38:20.666Z,8.35
2022-11-23T16:40:50.721Z,8.10
2022-11-23T16:43:18.316Z,7.60
2022-11-23T16:45:51.608Z,8.10
2022-11-23T16:48:38.695Z,8.00
2022-11-23T16:51:05.950Z,7.93
2022-11-23T16:53:53.317Z,7.70
2022-11-23T16:56:26.509Z,7.68
2022-11-23T16:58:54.647Z,9.02
2022-11-23T17:01:32.272Z,8.02
2022-11-23T17:04:02.024Z,8.20
2022-11-23T17:06:28.748Z,8.25
2022-11-23T17:09:03.140Z,7.78
2022-11-23T17:11:30.296Z,8.55
2022-11-23T17:13:57.127Z,7.78
2022-11-23T17:16:25.982Z,8.02
2022-11-23T17:18:52.658Z,7.60
2022-11-23T17:21:22.053Z,8.40
2022-11-23T17:23:48.800Z,8.02
2022-11-23T17:26:37.516Z,7.70
2022-11-23T17:29:06.941Z,6.78
2022-11-23T17:31:33.941Z,7.55
2022-11-23T17:34:00.606Z,7.13
2022-11-23T17:36:28.447Z,6.97
2022-11-23T17:38:55.141Z,6.95
2022-11-23T17:41:21.960Z,7.20
2022-11-23T17:43:48.571Z,8.07
2022-11-23T17:46:22.442Z,7.38
2022-11-23T17:48:55.812Z,7.55
2022-11-23T17:51:22.569Z,5.70
2022-11-23T17:53:49.305Z,7.93
2022-11-23T17:56:21.292Z,8.05
2022-11-23T17:58:48.696Z,8.82
2022-11-23T18:01:17.669Z,6.78
2022-11-23T18:03:45.586Z,7.25
2022-11-23T18:06:23.705Z,8.60
2022-11-23T18:08:51.790Z,8.55
2022-11-23T18:11:21.697Z,7.82
2022-11-23T18:13:50.357Z,8.95
2022-11-23T18:16:21.212Z,8.88
2022-11-23T18:18:54.599Z,8.00
2022-11-23T18:21:21.428Z,9.10
2022-11-23T18:23:48.564Z,8.63
2022-11-23T18:26:29.741Z,7.97
2022-11-23T18:28:57.916Z,8.75
2022-11-23T18:31:24.796Z,8.77
2022-11-23T18:33:51.629Z,8.30
2022-11-23T18:36:18.403Z,7.80
2022-11-23T18:38:45.294Z,7.07
2022-11-23T18:41:16.745Z,8.18
2022-11-23T18:43:44.607Z,8.60
2022-11-23T18:46:12.675Z,7.70
2022-11-23T18:48:39.277Z,8.93
2022-11-23T18:51:06.468Z,7.55
2022-11-23T18:53:33.325Z,8.00
2022-11-23T18:56:06.647Z,9.00
2022-11-23T18:58:34.550Z,8.25
2022-11-23T19:01:21.393Z,10.07
2022-11-23T19:03:50.824Z,10.13
2022-11-23T19:06:19.928Z,11.15
2022-11-23T19:08:48.745Z,11.65
2022-11-23T19:11:19.800Z,12.90
2022-11-23T19:13:48.966Z,12.93
2022-11-23T19:16:30.394Z,8.35
2022-11-23T19:19:01.940Z,12.27
2022-11-23T19:21:31.106Z,9.50
2022-11-23T19:23:59.091Z,11.07
2022-11-23T19:26:27.018Z,11.35
2022-11-23T19:28:54.917Z,13.10
2022-11-23T19:31:33.771Z,12.93
2022-11-23T19:34:07.829Z,12.68
2022-11-23T19:36:38.604Z,13.25
2022-11-23T19:39:08.069Z,10.75
2022-11-23T19:41:39.559Z,12.05
2022-11-23T19:44:06.879Z,12.98
2022-11-23T19:46:33.472Z,11.45
2022-11-23T19:49:00.086Z,11.70
2022-11-23T19:51:27.244Z,12.77
2022-11-23T19:53:54.825Z,12.35
2022-11-23T19:56:25.389Z,11.68
2022-11-23T19:58:52.854Z,11.65
2022-11-23T20:01:20.374Z,11.45
2022-11-23T20:03:48.042Z,12.73
2022-11-23T20:06:28.212Z,13.32
2022-11-23T20:14:00.595Z,12.35
2022-11-23T20:16:31.181Z,12.38
2022-11-23T20:18:59.287Z,11.95
2022-11-23T20:21:40.780Z,10.70
2022-11-23T20:24:11.953Z,12.35
2022-11-23T20:26:38.802Z,11.17
2022-11-23T20:29:08.797Z,13.38
2022-11-23T20:31:36.200Z,11.80
2022-11-23T20:34:19.528Z,11.88
2022-11-23T20:36:47.746Z,11.77
2022-11-23T20:39:16.261Z,11.40
2022-11-23T20:56:47.079Z,8.63
2022-11-23T20:59:13.703Z,12.10
2022-11-23T21:01:43.256Z,12.40
2022-11-23T21:26:55.631Z,10.60
2022-11-23T21:29:22.180Z,11.68
2022-11-23T21:31:49.124Z,12.45
2022-11-23T21:34:17.713Z,11.20
2022-11-23T21:36:44.189Z,11.50
2022-11-23T21:39:11.620Z,11.85
2022-11-23T21:41:38.625Z,12.35
2022-11-23T21:44:06.354Z,12.10
2022-11-23T21:46:33.374Z,11.02
2022-11-23T21:49:00.536Z,8.77
2022-11-23T21:51:28.680Z,11.50
2022-11-23T21:53:56.006Z,12.25
2022-11-23T21:56:22.554Z,12.52
2022-11-23T21:58:49.112Z,11.35
2022-11-23T22:01:21.724Z,11.43
2022-11-23T22:03:50.008Z,12.52
2022-11-23T22:06:20.490Z,12.00
2022-11-23T22:08:48.449Z,10.52
2022-11-23T22:11:21.754Z,11.27
2022-11-23T22:13:48.853Z,10.38
2022-11-23T22:16:19.788Z,10.13
2022-11-23T22:18:55.146Z,8.63
2022-11-23T22:21:23.404Z,9.05
2022-11-23T22:23:49.916Z,8.80
2022-11-23T22:26:19.856Z,7.90
2022-11-23T22:28:47.275Z,7.97
2022-11-23T22:31:14.501Z,8.23
2022-11-23T22:33:41.551Z,7.35
2022-11-23T22:36:11.741Z,7.57
2022-11-23T22:38:45.643Z,8.23
2022-11-23T22:41:13.347Z,7.75
2022-11-23T22:43:39.955Z,7.55
2022-11-23T22:46:07.646Z,7.38
2022-11-23T22:48:38.088Z,7.43
2022-11-23T22:51:04.772Z,7.05
2022-11-23T22:53:31.617Z,7.18
2022-11-23T22:58:44.597Z,6.32
2022-11-23T23:01:31.631Z,6.57
2022-11-23T23:03:59.393Z,6.07
2022-11-23T23:08:59.601Z,5.70
2022-11-23T23:11:27.017Z,5.30
2022-11-23T23:13:56.543Z,5.72
2022-11-23T23:16:23.140Z,5.55
